Powell, WY

9:00 AM MDT on October 01, 2014 (GMT -0600)
Crestview Estates | Change Station
CLOSE
Current Station
Personal Weather Station
Location: Powell, WY
Elevation: 4507 ft
Nearby Weather Stations

Elev 4507 ft 44.75 °N, 108.82 °W | Updated 18 seconds ago

Overcast
Overcast
45.9 °F
Feels Like 39 °F
N
17.3
Wind Variable Wind from West
Gusts 17.3 mph

Today
High -- | Low -- °F
--% Chance of Precip.
Yesterday
High -- | Low -- °F
Precip. -- in
7:13 AM 6:55 PM
Waxing Crescent, 48% visible
Pressure 29.96 in
Visibility 10.0 miles
Clouds Scattered Clouds 2800 ft
Mostly Cloudy 3400 ft
Overcast 4400 ft
Windchill 39 °F
Dew Point 37 °F
Humidity 71%
Rainfall 0.07 in
Snow Depth 0 in , 1 in , 0 in
UV 0 out of 12
Pollen 3.00 out of 12
Air Quality Not available.
Flu Activity Not available.
METAR KCOD 011435Z AUTO 03005KT 10SM SCT028 BKN034 OVC044 07/05 A2996 RMK AO1

More Conditions Fewer Conditions

Pressure 29.96 in
Visibility 10.0 miles
Clouds Scattered Clouds 2800 ft
Mostly Cloudy 3400 ft
Overcast 4400 ft
Windchill 39 °F
Dew Point 37 °F
Humidity 71%
Rainfall 0.07 in
Snow Depth 0 in , 1 in , 0 in
UV 0 out of 12
Pollen 3.00 out of 12
Air Quality Not available.
Flu Activity Not available.
METAR KCOD 011435Z AUTO 03005KT 10SM SCT028 BKN034 OVC044 07/05 A2996 RMK AO1

More Conditions Fewer Conditions

10-Day Weather Forecast

Almanac

Astronomy

Oct. 01, 2014 Rise Set
Actual Time 7:13 AM MDT 6:55 PM MDT
Civil Twilight 6:44 AM MDT 7:24 PM MDT
Nautical Twilight 6:10 AM MDT 7:58 PM MDT
Astronomical Twilight 5:35 AM MDT 8:33 PM MDT
Moon 2:27 PM MDT No Moon Set
Length of Visible Light 12h 40m
Length of Day
11h 42m
Tomorrow will be 3m 4s shorter.
Waxing Crescent, 48% of the Moon is Illuminated
Today
Waxing Crescent
Oct 1
First Quarter
Oct 8
Full
Oct 15
Last Quarter
Oct 23
New

Today's Extremes

State Highs State Lows

Community

WunderPhotos

Upload Photos

1,757,962 photos uploaded!

Nearby

Snow Depth

Station Depth Elevation
Snider Basin 0 in 8060 ft
Sand Lake 1 in 10050 ft
Webber Springs 0 in 9250 ft
Lewis Lake Divide 1 in 7850 ft
Little Snake River 0 in 8915 ft

Earthquake Activity

City Distance Mag. Time & Date
No recent earthquake activity has been reported nearby.
Minimum magnitude displayed is 2.5.

Coastal Water Temperatures

Place Temperature
No Stations Reporting

Nearby Weather Stations